Time;durP1;ratioP1;P1;durP2;ratioP2;P2;SDS_P1;SDS_P2;PMS_P1;PMS_P2;Temp;Humidity;BMP_temperature;BMP_pressure;BME280_temperature;BME280_humidity;BME280_pressure;Samples;Min_cycle;Max_cycle;Signal;HPM_P1;HPM_P2
2021/05/08 00:00:53;;;;;;;9.50;8.43;;;6.00;99.90;;;;;;5092469;28;20207;-43
2021/05/08 00:03:21;;;;;;;10.07;8.35;;;6.00;99.90;;;;;;5092353;28;20245;-44
2021/05/08 00:05:48;;;;;;;9.23;8.02;;;5.90;99.90;;;;;;5092616;28;20289;-45
2021/05/08 00:08:15;;;;;;;10.32;8.68;;;5.80;99.90;;;;;;5092487;28;20632;-44
2021/05/08 00:10:43;;;;;;;8.95;8.05;;;5.90;99.90;;;;;;5092545;28;20257;-43
2021/05/08 00:13:11;;;;;;;10.23;8.60;;;5.80;99.90;;;;;;5092228;28;20273;-43
2021/05/08 00:15:38;;;;;;;11.10;8.43;;;5.70;99.90;;;;;;5092209;28;20643;-43
2021/05/08 00:18:05;;;;;;;10.73;9.00;;;5.70;99.90;;;;;;5092466;28;20293;-42
2021/05/08 00:20:33;;;;;;;9.00;8.10;;;5.70;99.90;;;;;;5092403;28;20263;-39
2021/05/08 00:23:00;;;;;;;10.68;8.32;;;5.70;99.90;;;;;;5092343;28;20203;-42
2021/05/08 00:25:27;;;;;;;13.65;8.93;;;5.70;99.90;;;;;;5092392;28;20490;-47
2021/05/08 00:27:55;;;;;;;9.45;8.35;;;5.70;99.90;;;;;;5092253;28;20351;-45
2021/05/08 00:30:22;;;;;;;10.05;8.57;;;5.70;99.90;;;;;;5092200;28;20622;-43
2021/05/08 00:32:49;;;;;;;9.35;8.45;;;5.70;99.90;;;;;;5092346;28;20657;-44
2021/05/08 00:35:17;;;;;;;8.60;7.72;;;5.70;99.90;;;;;;5092111;28;20242;-46
2021/05/08 00:37:45;;;;;;;9.95;8.38;;;5.70;99.90;;;;;;5091999;28;20271;-44
2021/05/08 00:40:13;;;;;;;13.57;8.30;;;5.60;99.90;;;;;;5092137;28;20334;-43
2021/05/08 00:42:40;;;;;;;8.98;7.78;;;5.60;99.90;;;;;;5091956;28;20210;-43
2021/05/08 00:45:08;;;;;;;7.80;7.10;;;5.60;99.90;;;;;;5091799;28;20238;-43
2021/05/08 00:47:40;;;;;;;7.53;6.85;;;5.60;99.90;;;;;;5091756;28;20684;-46
2021/05/08 00:50:09;;;;;;;8.68;6.93;;;5.60;99.90;;;;;;5091955;28;20218;-43
2021/05/08 00:52:37;;;;;;;8.65;7.72;;;5.50;99.90;;;;;;5091786;28;20261;-44
2021/05/08 00:55:06;;;;;;;10.23;8.57;;;5.50;99.90;;;;;;5095851;28;20504;-44
2021/05/08 00:57:34;;;;;;;7.88;7.18;;;5.50;99.90;;;;;;5096333;28;20301;-42
2021/05/08 01:00:01;;;;;;;8.43;7.63;;;5.40;99.90;;;;;;5095999;28;20210;-43
2021/05/08 01:02:28;;;;;;;8.48;7.70;;;5.40;99.90;;;;;;5095910;28;20289;-44
2021/05/08 01:04:55;;;;;;;8.43;7.57;;;5.30;99.90;;;;;;5096076;28;20230;-44
2021/05/08 01:07:22;;;;;;;8.65;7.45;;;5.20;99.90;;;;;;5096043;28;20639;-43
2021/05/08 01:09:49;;;;;;;9.00;7.63;;;5.20;99.90;;;;;;5095730;28;20263;-43
2021/05/08 01:12:17;;;;;;;9.05;7.68;;;5.20;99.90;;;;;;5095813;28;20313;-42
2021/05/08 01:14:46;;;;;;;8.32;6.72;;;5.20;99.90;;;;;;5095773;28;20267;-44
2021/05/08 01:17:12;;;;;;;9.68;7.55;;;5.20;99.90;;;;;;5095548;28;20202;-45
2021/05/08 01:19:40;;;;;;;8.38;7.55;;;5.20;99.90;;;;;;5095529;28;20748;-45
2021/05/08 01:22:07;;;;;;;7.72;6.97;;;5.20;99.90;;;;;;5095485;28;20298;-43
2021/05/08 01:24:34;;;;;;;8.15;6.88;;;5.20;99.90;;;;;;5095321;28;20480;-42
2021/05/08 01:27:01;;;;;;;7.20;6.50;;;5.20;99.90;;;;;;5095658;28;20294;-44
2021/05/08 01:29:28;;;;;;;7.75;6.95;;;5.20;99.90;;;;;;5095730;28;20293;-45
2021/05/08 01:31:55;;;;;;;7.80;7.07;;;5.20;99.90;;;;;;5095452;28;20227;-44
2021/05/08 01:34:22;;;;;;;7.35;6.60;;;5.20;99.90;;;;;;5095480;28;20211;-44
2021/05/08 01:36:49;;;;;;;9.30;7.28;;;5.20;99.90;;;;;;5095359;28;20238;-44
2021/05/08 01:39:17;;;;;;;9.18;7.38;;;5.20;99.90;;;;;;5095117;28;20303;-45
2021/05/08 01:41:45;;;;;;;10.48;7.63;;;5.20;99.90;;;;;;5095477;28;20581;-44
2021/05/08 01:44:12;;;;;;;9.80;7.28;;;5.10;99.90;;;;;;5095358;28;20302;-46
2021/05/08 01:46:39;;;;;;;9.40;7.72;;;5.10;99.90;;;;;;5094913;28;20214;-44
2021/05/08 01:49:06;;;;;;;9.10;7.57;;;5.10;99.90;;;;;;5094929;28;20214;-41
2021/05/08 01:51:33;;;;;;;9.60;7.82;;;5.10;99.90;;;;;;5094923;28;20206;-41
2021/05/08 01:54:00;;;;;;;9.07;6.78;;;5.10;99.90;;;;;;5095076;28;20648;-43
2021/05/08 01:56:28;;;;;;;7.47;6.50;;;5.10;99.90;;;;;;5095306;28;20293;-41
2021/05/08 01:58:54;;;;;;;8.50;6.75;;;5.10;99.90;;;;;;5095173;28;20302;-42
2021/05/08 02:01:22;;;;;;;7.97;7.00;;;5.10;99.90;;;;;;5089289;28;20300;-41
2021/05/08 02:03:49;;;;;;;8.38;6.95;;;5.00;99.90;;;;;;5074607;28;20203;-41
2021/05/08 02:06:16;;;;;;;9.32;7.43;;;5.00;99.90;;;;;;5090737;28;20230;-40
2021/05/08 02:08:42;;;;;;;10.55;8.68;;;5.00;99.90;;;;;;5095004;28;20702;-41
2021/05/08 02:11:09;;;;;;;9.10;6.55;;;5.00;99.90;;;;;;5094655;28;20441;-41
2021/05/08 02:13:39;;;;;;;6.30;5.70;;;5.00;99.90;;;;;;5094484;28;20232;-40
2021/05/08 02:16:06;;;;;;;10.63;6.50;;;5.00;99.90;;;;;;5094658;28;20218;-41
2021/05/08 02:18:33;;;;;;;6.47;5.88;;;5.00;99.90;;;;;;5094442;28;20249;-41
2021/05/08 02:21:00;;;;;;;7.78;7.05;;;5.00;99.90;;;;;;5094582;28;20214;-41
2021/05/08 02:23:27;;;;;;;8.13;7.28;;;5.00;99.90;;;;;;5094528;28;20242;-41
2021/05/08 02:25:54;;;;;;;8.45;7.65;;;5.00;99.90;;;;;;5094768;28;20221;-42
2021/05/08 02:28:21;;;;;;;7.20;6.50;;;4.90;99.90;;;;;;5094615;28;20289;-41
2021/05/08 02:30:49;;;;;;;8.77;6.35;;;5.00;99.90;;;;;;5094528;28;20301;-41
2021/05/08 02:33:16;;;;;;;7.22;6.38;;;4.90;99.90;;;;;;5094182;28;20649;-41
2021/05/08 02:35:43;;;;;;;7.53;6.80;;;4.90;99.90;;;;;;5094444;28;20280;-41
2021/05/08 02:38:10;;;;;;;8.10;6.40;;;4.90;99.90;;;;;;5094325;28;20294;-41
2021/05/08 02:40:39;;;;;;;8.05;7.05;;;4.80;99.90;;;;;;5094332;28;20234;-41
2021/05/08 02:43:08;;;;;;;7.18;6.53;;;4.80;99.90;;;;;;5094019;28;20321;-41
2021/05/08 02:45:35;;;;;;;7.75;6.22;;;4.80;99.90;;;;;;5094124;28;20301;-43
2021/05/08 02:48:04;;;;;;;8.07;6.15;;;4.80;99.90;;;;;;5094538;28;20298;-41
2021/05/08 02:50:31;;;;;;;9.15;6.85;;;4.80;99.90;;;;;;5094153;28;20206;-40
2021/05/08 02:52:57;;;;;;;8.10;6.60;;;4.80;99.90;;;;;;5094259;28;20654;-42
2021/05/08 02:55:24;;;;;;;8.27;6.57;;;4.80;99.90;;;;;;5094025;28;20242;-41
2021/05/08 02:57:51;;;;;;;8.20;5.88;;;4.70;99.90;;;;;;5094076;28;20381;-42
2021/05/08 03:00:20;;;;;;;7.47;6.60;;;4.60;99.90;;;;;;5093876;28;20298;-42
2021/05/08 03:02:47;;;;;;;7.72;6.93;;;4.60;99.90;;;;;;5094093;28;20364;-40
2021/05/08 03:05:15;;;;;;;7.22;6.53;;;4.60;99.90;;;;;;5093872;28;20222;-40
2021/05/08 03:07:42;;;;;;;8.50;5.65;;;4.60;99.90;;;;;;5093842;28;20760;-41
2021/05/08 03:10:10;;;;;;;6.95;6.05;;;4.60;99.90;;;;;;5093770;28;20294;-42
2021/05/08 03:12:37;;;;;;;6.75;6.13;;;4.60;99.90;;;;;;5093640;28;20606;-40
2021/05/08 03:15:06;;;;;;;7.15;6.45;;;4.60;99.90;;;;;;5093675;28;20313;-47
2021/05/08 03:17:33;;;;;;;7.47;6.70;;;4.60;99.90;;;;;;5093285;28;20234;-45
2021/05/08 03:20:00;;;;;;;8.57;7.37;;;4.60;99.90;;;;;;5093646;28;20207;-45
2021/05/08 03:22:28;;;;;;;6.90;6.20;;;4.50;99.90;;;;;;5093442;28;20689;-47
2021/05/08 03:24:56;;;;;;;7.65;6.95;;;4.40;99.90;;;;;;5093174;28;20747;-47
2021/05/08 03:27:23;;;;;;;8.25;6.88;;;4.40;99.90;;;;;;5093395;28;20206;-49
2021/05/08 03:29:50;;;;;;;7.40;6.70;;;4.40;99.90;;;;;;5093807;28;20566;-46
2021/05/08 03:32:17;;;;;;;7.22;6.63;;;4.40;99.90;;;;;;5093383;28;20749;-48
2021/05/08 03:34:45;;;;;;;6.72;6.13;;;4.40;99.90;;;;;;5093325;28;20238;-51
2021/05/08 03:37:11;;;;;;;7.45;6.07;;;4.40;99.90;;;;;;5093181;28;20297;-50
2021/05/08 03:39:39;;;;;;;7.50;6.35;;;4.50;99.90;;;;;;5093107;28;20207;-47
2021/05/08 03:42:07;;;;;;;7.18;6.40;;;4.50;99.90;;;;;;5092907;28;20230;-46
2021/05/08 03:44:33;;;;;;;7.05;6.40;;;4.50;99.90;;;;;;5092848;28;20305;-49
2021/05/08 03:47:00;;;;;;;7.43;6.53;;;4.50;99.90;;;;;;5093171;28;20210;-43
2021/05/08 03:49:28;;;;;;;7.13;6.05;;;4.50;99.90;;;;;;5093140;28;20301;-44
2021/05/08 03:52:01;;;;;;;7.38;6.22;;;4.50;99.90;;;;;;5093164;28;20206;-43
2021/05/08 03:54:28;;;;;;;7.95;6.68;;;4.50;99.90;;;;;;5092786;28;20289;-46
2021/05/08 03:56:57;;;;;;;10.52;7.53;;;4.60;99.90;;;;;;5092842;28;20202;-42
2021/05/08 04:03:05;;;;;;;8.18;6.72;;;4.50;99.90;;;;;;5092635;28;20225;-43
2021/05/08 04:05:32;;;;;;;7.13;6.53;;;4.50;99.90;;;;;;5092799;28;20461;-42
2021/05/08 04:07:59;;;;;;;7.00;6.20;;;4.50;99.90;;;;;;5092791;28;20673;-43
2021/05/08 04:10:25;;;;;;;8.18;7.43;;;4.50;99.90;;;;;;5092529;28;20209;-42
2021/05/08 04:12:53;;;;;;;7.00;6.25;;;4.50;99.90;;;;;;5092278;28;20209;-40
2021/05/08 04:15:20;;;;;;;6.43;5.93;;;4.60;99.90;;;;;;5092319;28;20637;-42
2021/05/08 04:17:47;;;;;;;8.27;6.35;;;4.60;99.90;;;;;;5092280;28;20696;-46
2021/05/08 04:20:14;;;;;;;7.15;6.40;;;4.70;99.90;;;;;;5092145;28;20222;-42
2021/05/08 04:22:41;;;;;;;7.57;6.88;;;4.70;99.90;;;;;;5091982;28;20227;-41
2021/05/08 04:25:09;;;;;;;7.82;7.13;;;4.80;99.90;;;;;;5092137;28;20760;-43
2021/05/08 04:27:36;;;;;;;8.00;6.60;;;4.80;99.90;;;;;;5091636;28;20302;-42
2021/05/08 04:30:05;;;;;;;7.10;6.40;;;4.90;99.90;;;;;;5091686;28;20290;-41
2021/05/08 04:32:32;;;;;;;8.15;7.10;;;4.90;99.90;;;;;;5091654;28;20689;-42
2021/05/08 04:34:59;;;;;;;7.50;6.88;;;5.00;99.90;;;;;;5092286;28;20215;-44
2021/05/08 04:37:26;;;;;;;8.13;6.88;;;5.10;99.90;;;;;;5092309;28;20216;-42
2021/05/08 04:39:53;;;;;;;7.55;6.47;;;5.10;99.90;;;;;;5092304;28;20206;-43
2021/05/08 04:42:20;;;;;;;7.65;6.95;;;5.20;99.90;;;;;;5092025;28;20254;-41
2021/05/08 04:44:47;;;;;;;7.95;6.70;;;5.30;99.90;;;;;;5092293;28;20206;-41
2021/05/08 04:47:16;;;;;;;8.52;6.40;;;5.40;99.90;;;;;;5092399;28;20615;-41
2021/05/08 04:49:43;;;;;;;8.63;6.47;;;5.50;99.90;;;;;;5091955;28;20210;-40
2021/05/08 04:52:10;;;;;;;7.82;5.72;;;5.60;99.90;;;;;;5092263;28;20249;-41
2021/05/08 04:54:37;;;;;;;7.25;6.32;;;5.70;99.90;;;;;;5092137;28;20687;-41
2021/05/08 04:57:05;;;;;;;8.32;7.40;;;5.80;99.90;;;;;;5091758;28;20230;-46
2021/05/08 04:59:32;;;;;;;6.97;6.35;;;5.90;99.90;;;;;;5091915;28;20239;-45
2021/05/08 05:02:00;;;;;;;6.95;6.35;;;6.10;99.90;;;;;;5092264;28;20248;-45
2021/05/08 05:04:28;;;;;;;6.78;6.10;;;6.10;99.90;;;;;;5091900;28;20260;-42
2021/05/08 05:06:55;;;;;;;7.47;5.80;;;6.20;99.90;;;;;;5091778;28;20293;-42
2021/05/08 05:09:23;;;;;;;7.57;6.75;;;6.40;99.90;;;;;;5091643;28;20317;-41
2021/05/08 05:11:51;;;;;;;9.30;6.93;;;6.50;99.90;;;;;;5091881;28;20559;-44
2021/05/08 05:14:17;;;;;;;6.78;6.18;;;6.60;99.90;;;;;;5091931;28;20209;-45
2021/05/08 05:16:44;;;;;;;7.22;6.53;;;6.80;99.90;;;;;;5091778;28;20251;-43
2021/05/08 05:19:11;;;;;;;11.77;6.95;;;6.90;99.90;;;;;;5092000;28;20279;-47
2021/05/08 05:21:39;;;;;;;7.07;6.45;;;7.00;99.90;;;;;;5091799;28;20203;-47
2021/05/08 05:24:07;;;;;;;7.28;6.30;;;7.10;99.90;;;;;;5090982;28;20417;-43
2021/05/08 05:26:34;;;;;;;10.13;7.57;;;7.20;99.90;;;;;;5091662;28;20294;-44
2021/05/08 05:29:01;;;;;;;8.20;5.47;;;7.30;99.90;;;;;;5091815;28;20303;-45
2021/05/08 05:31:28;;;;;;;7.75;6.80;;;7.30;99.90;;;;;;5092002;28;20297;-43
2021/05/08 05:33:55;;;;;;;6.80;6.20;;;7.50;99.90;;;;;;5091784;28;20298;-44
2021/05/08 05:36:22;;;;;;;6.55;5.95;;;7.60;99.90;;;;;;5091644;28;20211;-45
2021/05/08 05:38:50;;;;;;;6.45;5.85;;;7.70;99.90;;;;;;5091508;28;20700;-47
2021/05/08 05:41:17;;;;;;;7.72;6.00;;;7.80;99.90;;;;;;5095271;28;20293;-45
2021/05/08 05:43:44;;;;;;;5.40;4.90;;;7.80;99.90;;;;;;5095413;28;20316;-43
2021/05/08 05:46:11;;;;;;;5.03;4.57;;;7.80;99.90;;;;;;5095545;28;20314;-43
2021/05/08 05:48:38;;;;;;;5.65;5.25;;;7.90;99.90;;;;;;5095219;28;20211;-46
2021/05/08 05:51:07;;;;;;;6.72;6.15;;;8.00;99.90;;;;;;5095068;28;20252;-43
2021/05/08 05:53:34;;;;;;;5.35;4.95;;;8.00;99.90;;;;;;5095280;28;20238;-43
2021/05/08 05:56:02;;;;;;;6.63;6.05;;;8.10;99.90;;;;;;5095111;28;20297;-45
2021/05/08 05:58:29;;;;;;;6.38;5.78;;;8.20;99.90;;;;;;5095109;28;20321;-46
2021/05/08 06:00:56;;;;;;;5.82;5.28;;;8.20;99.90;;;;;;5095000;28;20629;-43
2021/05/08 06:03:24;;;;;;;5.88;4.82;;;8.20;99.90;;;;;;5094730;28;20265;-43
2021/05/08 06:05:51;;;;;;;5.97;5.47;;;8.30;99.90;;;;;;5094784;28;20251;-43
2021/05/08 06:08:18;;;;;;;5.78;5.20;;;8.40;99.90;;;;;;5094587;28;20733;-43
2021/05/08 06:10:45;;;;;;;5.32;4.82;;;8.50;99.90;;;;;;5094772;28;20211;-43
2021/05/08 06:13:13;;;;;;;5.90;4.97;;;8.70;99.90;;;;;;5094453;28;20793;-45
2021/05/08 06:15:40;;;;;;;5.47;5.05;;;8.80;99.90;;;;;;5094579;28;20301;-48
2021/05/08 06:18:07;;;;;;;5.55;5.05;;;9.00;99.90;;;;;;5094647;28;20246;-44
2021/05/08 06:20:34;;;;;;;5.38;4.85;;;9.00;99.90;;;;;;5094616;28;20729;-43
2021/05/08 06:23:02;;;;;;;5.65;5.15;;;9.10;99.90;;;;;;5094363;28;20384;-44
2021/05/08 06:25:29;;;;;;;5.60;5.10;;;9.20;99.90;;;;;;5094397;28;20712;-44
2021/05/08 06:27:56;;;;;;;6.40;5.85;;;9.20;99.90;;;;;;5094271;28;20684;-43
2021/05/08 06:30:24;;;;;;;7.15;5.78;;;9.30;99.90;;;;;;5094420;28;20256;-44
2021/05/08 06:32:51;;;;;;;6.35;5.15;;;9.40;99.90;;;;;;5094186;28;20203;-46
2021/05/08 06:35:18;;;;;;;7.05;4.95;;;9.50;99.90;;;;;;5094266;28;20297;-43
2021/05/08 06:37:49;;;;;;;5.78;5.05;;;9.60;99.90;;;;;;5094328;28;20294;-44
2021/05/08 06:40:16;;;;;;;6.18;4.82;;;9.70;99.90;;;;;;5094402;28;20651;-42
2021/05/08 06:42:43;;;;;;;6.72;4.93;;;9.80;99.90;;;;;;5094067;28;20287;-43
2021/05/08 06:45:11;;;;;;;6.18;5.60;;;10.00;99.90;;;;;;5093877;28;20293;-43
2021/05/08 06:47:39;;;;;;;4.90;4.50;;;10.00;99.90;;;;;;5093863;28;20225;-44
2021/05/08 06:50:07;;;;;;;5.32;4.82;;;10.20;99.80;;;;;;5094191;28;20246;-43
2021/05/08 06:52:34;;;;;;;5.30;4.28;;;10.40;99.50;;;;;;5093414;28;20301;-44
2021/05/08 06:55:01;;;;;;;5.18;4.00;;;10.50;99.20;;;;;;5094207;28;20715;-44
2021/05/08 06:57:28;;;;;;;6.78;4.53;;;10.60;98.90;;;;;;5093847;28;20206;-44
2021/05/08 06:59:56;;;;;;;5.20;4.70;;;10.70;98.80;;;;;;5093701;28;20222;-42
2021/05/08 07:02:23;;;;;;;4.65;4.25;;;10.70;98.70;;;;;;5093614;28;20648;-43
2021/05/08 07:04:51;;;;;;;4.10;3.70;;;10.80;98.60;;;;;;5093766;28;20230;-40
2021/05/08 07:07:18;;;;;;;4.55;4.15;;;10.90;98.30;;;;;;5093645;28;20293;-46
2021/05/08 07:09:46;;;;;;;4.13;3.83;;;11.00;97.90;;;;;;5093446;28;20210;-42
2021/05/08 07:12:12;;;;;;;6.00;5.50;;;11.10;97.80;;;;;;5093567;28;20253;-41
2021/05/08 07:14:41;;;;;;;4.50;4.10;;;11.30;97.60;;;;;;5093351;28;20210;-42
2021/05/08 07:17:08;;;;;;;4.50;4.10;;;11.40;97.20;;;;;;5093555;28;20764;-48
2021/05/08 07:19:35;;;;;;;4.75;4.35;;;11.40;96.90;;;;;;5093488;28;20252;-45
2021/05/08 07:22:04;;;;;;;4.15;3.63;;;11.50;97.00;;;;;;5093419;28;20203;-45
2021/05/08 07:24:31;;;;;;;5.85;4.22;;;11.60;96.40;;;;;;5093335;28;20334;-44
2021/05/08 07:26:58;;;;;;;4.07;3.60;;;11.70;96.20;;;;;;5093475;28;20232;-46
2021/05/08 07:29:25;;;;;;;4.82;4.32;;;11.80;96.00;;;;;;5093331;28;20535;-48
2021/05/08 07:31:52;;;;;;;5.40;4.90;;;12.00;95.80;;;;;;5093164;28;20581;-48
2021/05/08 07:34:19;;;;;;;8.68;4.13;;;12.20;95.50;;;;;;5093023;28;20280;-46
2021/05/08 07:36:46;;;;;;;4.15;3.75;;;12.30;95.10;;;;;;5092942;28;20284;-45
2021/05/08 07:39:14;;;;;;;4.45;3.35;;;12.30;94.80;;;;;;5093082;28;20267;-47
2021/05/08 07:41:41;;;;;;;4.22;3.83;;;12.40;94.60;;;;;;5092994;28;20264;-47
2021/05/08 07:44:08;;;;;;;4.63;3.42;;;12.50;94.30;;;;;;5093208;28;20242;-45
2021/05/08 07:46:36;;;;;;;3.92;3.50;;;12.60;94.00;;;;;;5092941;28;20359;-48
2021/05/08 07:49:03;;;;;;;3.03;2.75;;;12.70;93.90;;;;;;5092702;28;20253;-46
2021/05/08 07:51:30;;;;;;;3.83;3.50;;;12.80;93.60;;;;;;5092770;28;20568;-44
2021/05/08 07:53:57;;;;;;;4.35;3.42;;;12.90;93.20;;;;;;5093060;28;20297;-46
2021/05/08 07:56:25;;;;;;;3.42;3.13;;;12.90;93.10;;;;;;5092617;28;20224;-44
2021/05/08 07:58:51;;;;;;;3.38;2.67;;;13.00;92.60;;;;;;5092795;28;20206;-44
2021/05/08 08:01:21;;;;;;;6.20;3.70;;;13.10;92.20;;;;;;5092667;28;20242;-45
2021/05/08 08:03:48;;;;;;;3.15;2.17;;;13.10;91.10;;;;;;5091742;28;20257;-48
2021/05/08 08:06:14;;;;;;;3.33;2.83;;;13.20;90.70;;;;;;5092477;28;20242;-44
2021/05/08 08:08:41;;;;;;;3.95;2.78;;;13.40;90.10;;;;;;5092151;28;20297;-45
2021/05/08 08:11:08;;;;;;;2.95;2.50;;;13.50;88.80;;;;;;5092212;28;20314;-44
2021/05/08 08:13:36;;;;;;;4.63;2.45;;;13.60;88.30;;;;;;5092373;28;20297;-46
2021/05/08 08:16:04;;;;;;;3.40;3.00;;;13.70;86.60;;;;;;5092042;28;20206;-50
2021/05/08 08:18:31;;;;;;;3.10;2.53;;;13.70;85.40;;;;;;5092014;28;20286;-45
2021/05/08 08:20:58;;;;;;;3.53;2.90;;;13.70;85.00;;;;;;5092040;28;20207;-47
2021/05/08 08:23:25;;;;;;;2.75;2.55;;;13.80;84.70;;;;;;5091772;28;20295;-45
2021/05/08 08:25:52;;;;;;;2.72;2.40;;;13.80;83.70;;;;;;5092068;28;20326;-48
2021/05/08 08:28:19;;;;;;;6.03;2.65;;;13.70;83.20;;;;;;5092233;28;20428;-48
2021/05/08 08:30:47;;;;;;;4.47;2.78;;;13.70;82.90;;;;;;5092075;28;20696;-50
2021/05/08 08:33:14;;;;;;;2.67;2.47;;;13.80;82.00;;;;;;5092163;28;20292;-49
2021/05/08 08:35:41;;;;;;;3.35;2.53;;;13.90;81.50;;;;;;5091858;28;20221;-46
2021/05/08 08:38:08;;;;;;;4.85;2.97;;;14.00;81.40;;;;;;5092025;28;20738;-49
2021/05/08 08:40:35;;;;;;;3.05;2.80;;;14.10;80.70;;;;;;5092136;28;20288;-47
2021/05/08 08:43:04;;;;;;;3.03;2.15;;;14.20;79.90;;;;;;5091936;28;20237;-46
2021/05/08 08:45:33;;;;;;;3.47;2.75;;;14.30;79.30;;;;;;5091927;28;20218;-46
2021/05/08 08:48:01;;;;;;;3.65;2.67;;;14.40;78.80;;;;;;5091858;28;20567;-47
2021/05/08 08:50:31;;;;;;;2.80;2.60;;;14.40;78.40;;;;;;5092087;28;20207;-50
2021/05/08 08:53:00;;;;;;;3.25;2.90;;;14.40;78.40;;;;;;5092291;28;20275;-46
2021/05/08 08:55:27;;;;;;;2.65;2.45;;;14.40;77.90;;;;;;5092210;28;20249;-46
2021/05/08 08:57:55;;;;;;;2.28;2.08;;;14.50;77.90;;;;;;5092089;28;20616;-47
2021/05/08 09:00:22;;;;;;;4.22;2.65;;;14.50;78.30;;;;;;5091890;28;20522;-45
2021/05/08 09:02:51;;;;;;;5.20;3.13;;;14.50;79.10;;;;;;5091729;28;20293;-46
2021/05/08 09:05:23;;;;;;;3.30;2.10;;;14.60;78.10;;;;;;5092311;28;20224;-47
2021/05/08 09:07:51;;;;;;;2.60;2.40;;;14.80;77.80;;;;;;5092079;28;20272;-46
2021/05/08 09:10:23;;;;;;;3.60;2.88;;;15.00;77.30;;;;;;5091793;28;20613;-45
2021/05/08 09:12:51;;;;;;;3.50;2.88;;;15.10;76.60;;;;;;5091812;28;20256;-47
2021/05/08 09:15:29;;;;;;;3.13;2.80;;;15.10;76.40;;;;;;5094366;28;20218;-45
2021/05/08 09:17:56;;;;;;;3.90;2.75;;;15.20;75.90;;;;;;5096142;28;20210;-45
2021/05/08 09:20:24;;;;;;;4.03;2.30;;;15.30;75.90;;;;;;5096147;28;20325;-45
2021/05/08 09:22:52;;;;;;;2.53;2.22;;;15.20;75.50;;;;;;5095789;28;20206;-45
2021/05/08 09:25:20;;;;;;;2.63;2.35;;;15.30;75.60;;;;;;5095340;28;20242;-45
2021/05/08 09:27:49;;;;;;;3.47;2.53;;;15.30;75.10;;;;;;5095794;28;20297;-44
2021/05/08 09:30:20;;;;;;;2.90;2.22;;;15.30;75.20;;;;;;5095742;28;20379;-43
2021/05/08 09:32:59;;;;;;;2.95;2.20;;;15.40;75.00;;;;;;5095514;28;20206;-44
2021/05/08 09:35:29;;;;;;;2.83;2.50;;;15.40;74.80;;;;;;5095575;28;20235;-44
2021/05/08 09:38:10;;;;;;;4.43;2.70;;;15.50;74.00;;;;;;5095165;28;20249;-42
2021/05/08 09:40:41;;;;;;;2.10;1.88;;;15.50;72.90;;;;;;5095133;28;20653;-44
2021/05/08 09:43:11;;;;;;;3.13;2.42;;;15.70;73.40;;;;;;5094419;28;20707;-43
2021/05/08 09:45:41;;;;;;;4.60;2.33;;;15.90;72.70;;;;;;5095587;28;20203;-44
2021/05/08 09:48:18;;;;;;;2.47;1.80;;;16.10;72.30;;;;;;5095013;28;20607;-44
2021/05/08 09:51:17;;;;;;;3.67;2.00;;;16.30;71.20;;;;;;5095026;28;20567;-46
2021/05/08 09:53:44;;;;;;;2.17;1.98;;;16.60;70.00;;;;;;5095083;28;20604;-47
2021/05/08 09:56:39;;;;;;;2.10;1.90;;;16.80;70.30;;;;;;5094876;28;20237;-43
2021/05/08 09:59:26;;;;;;;2.22;2.03;;;16.90;68.50;;;;;;5070629;28;20218;-44
2021/05/08 10:02:12;;;;;;;1.83;1.73;;;17.00;67.60;;;;;;5095063;28;20210;-44
2021/05/08 10:04:44;;;;;;;1.95;1.85;;;17.20;66.50;;;;;;5094494;28;20257;-44
2021/05/08 10:07:14;;;;;;;1.88;1.60;;;17.40;66.00;;;;;;5094805;28;20253;-43
2021/05/08 10:09:42;;;;;;;2.97;1.75;;;17.50;64.50;;;;;;5094659;28;20210;-44
2021/05/08 10:12:13;;;;;;;2.97;1.85;;;17.40;63.90;;;;;;5094561;28;20269;-44
2021/05/08 10:14:41;;;;;;;1.98;1.80;;;17.50;63.00;;;;;;5094458;28;20680;-45
2021/05/08 10:17:19;;;;;;;9.70;2.47;;;17.40;62.70;;;;;;5094263;28;20210;-47
2021/05/08 10:19:49;;;;;;;2.92;1.67;;;17.30;62.30;;;;;;5094248;28;20225;-45
2021/05/08 10:22:18;;;;;;;1.67;1.58;;;17.20;62.60;;;;;;5094691;28;20203;-45
2021/05/08 10:24:47;;;;;;;4.03;1.95;;;17.20;62.60;;;;;;5094062;28;20701;-45
2021/05/08 10:27:15;;;;;;;6.75;5.95;;;17.20;62.10;;;;;;5093428;28;20215;-45
2021/05/08 10:29:45;;;;;;;2.50;2.08;;;17.10;62.00;;;;;;5094451;28;20207;-44
2021/05/08 10:32:14;;;;;;;2.20;2.00;;;17.10;61.90;;;;;;5094706;28;20668;-45
2021/05/08 10:34:51;;;;;;;10.32;8.90;;;17.20;61.90;;;;;;5093963;28;20207;-46
2021/05/08 10:37:20;;;;;;;6.35;3.22;;;17.30;61.40;;;;;;5094147;28;20237;-50
2021/05/08 10:39:54;;;;;;;3.88;2.13;;;17.30;62.20;;;;;;5093926;28;20210;-46
2021/05/08 10:42:38;;;;;;;4.22;3.30;;;17.30;60.90;;;;;;5094114;28;20697;-48
2021/05/08 10:45:07;;;;;;;2.17;2.00;;;17.20;60.90;;;;;;5093816;28;20311;-47
2021/05/08 10:48:06;;;;;;;2.35;2.15;;;17.30;61.00;;;;;;5094029;28;20388;-45
2021/05/08 10:50:43;;;;;;;2.25;2.05;;;17.20;60.50;;;;;;5093778;28;20253;-46
2021/05/08 10:53:13;;;;;;;2.47;2.28;;;17.20;60.70;;;;;;5093654;28;20207;-45
2021/05/08 10:55:48;;;;;;;3.35;3.05;;;17.40;61.00;;;;;;5093936;28;20277;-46
2021/05/08 10:58:38;;;;;;;3.72;1.98;;;17.60;60.60;;;;;;5093888;28;20283;-45
2021/05/08 11:01:07;;;;;;;3.08;2.28;;;17.80;59.90;;;;;;5093580;28;20211;-46
2021/05/08 11:04:04;;;;;;;1.95;1.65;;;18.00;59.80;;;;;;5093755;28;20231;-47
2021/05/08 11:06:31;;;;;;;2.28;2.08;;;18.10;59.30;;;;;;5093561;28;20230;-49
2021/05/08 11:08:59;;;;;;;2.28;2.08;;;18.10;59.50;;;;;;5093199;28;20632;-46
2021/05/08 11:11:45;;;;;;;1.60;1.50;;;18.10;59.50;;;;;;5093375;28;20273;-44
2021/05/08 11:14:12;;;;;;;4.85;2.60;;;18.20;58.90;;;;;;5093182;28;20202;-44
2021/05/08 11:16:55;;;;;;;3.65;1.92;;;18.20;59.50;;;;;;5093824;28;20399;-48
2021/05/08 11:19:24;;;;;;;1.75;1.65;;;18.00;59.30;;;;;;5093354;28;20225;-45
2021/05/08 11:22:06;;;;;;;1.77;1.67;;;17.80;59.90;;;;;;5093325;28;20327;-47
2021/05/08 11:24:36;;;;;;;2.38;2.15;;;17.70;59.70;;;;;;5091945;28;20235;-51
2021/05/08 11:27:20;;;;;;;2.80;1.73;;;17.70;60.00;;;;;;5093103;28;20214;-44
2021/05/08 11:29:47;;;;;;;2.42;1.92;;;17.80;59.90;;;;;;5092942;28;20299;-43
2021/05/08 11:32:14;;;;;;;2.83;2.60;;;17.90;59.90;;;;;;5092585;28;20210;-46
2021/05/08 11:34:43;;;;;;;1.85;1.75;;;18.00;59.80;;;;;;5092690;28;20639;-45
2021/05/08 11:37:13;;;;;;;6.30;4.78;;;18.00;59.50;;;;;;5093408;28;20256;-46
2021/05/08 11:39:42;;;;;;;2.83;2.53;;;18.10;59.70;;;;;;5092835;28;20215;-44
2021/05/08 11:42:15;;;;;;;2.53;2.33;;;18.10;59.70;;;;;;5092590;28;20268;-44
2021/05/08 11:44:43;;;;;;;4.13;1.90;;;18.20;59.70;;;;;;5092653;28;20313;-45
2021/05/08 11:47:27;;;;;;;2.08;1.90;;;18.30;59.80;;;;;;5092405;28;20681;-46
2021/05/08 11:50:00;;;;;;;5.50;3.80;;;18.50;58.80;;;;;;5092462;28;20297;-46
2021/05/08 11:52:35;;;;;;;2.05;1.90;;;18.60;58.70;;;;;;5092685;28;20656;-44
2021/05/08 11:55:05;;;;;;;1.92;1.80;;;18.70;58.10;;;;;;5092434;28;20664;-47
2021/05/08 11:57:32;;;;;;;3.65;3.08;;;18.60;58.20;;;;;;5092418;28;20294;-45
2021/05/08 11:59:59;;;;;;;11.38;8.35;;;18.60;58.40;;;;;;5092390;28;20211;-47
2021/05/08 12:02:26;;;;;;;19.42;10.73;;;18.60;58.50;;;;;;5092439;28;20234;-51
2021/05/08 12:04:55;;;;;;;2.33;1.98;;;18.80;58.40;;;;;;5092026;28;20318;-45
2021/05/08 12:07:26;;;;;;;7.35;4.03;;;19.00;58.00;;;;;;5092333;28;20241;-44
2021/05/08 12:10:18;;;;;;;4.50;3.97;;;19.10;57.70;;;;;;5092067;28;20265;-46
2021/05/08 12:12:49;;;;;;;2.40;2.20;;;19.00;57.60;;;;;;5092226;28;20293;-45
2021/05/08 12:15:21;;;;;;;2.53;2.30;;;19.00;57.80;;;;;;5092110;28;20206;-46
2021/05/08 12:17:50;;;;;;;9.27;7.75;;;18.90;57.90;;;;;;5091871;28;20301;-47
2021/05/08 12:20:18;;;;;;;2.78;1.92;;;18.90;58.10;;;;;;5092089;28;20210;-45
2021/05/08 12:22:45;;;;;;;1.92;1.73;;;18.90;58.00;;;;;;5091983;28;20565;-46
2021/05/08 12:25:18;;;;;;;4.50;2.90;;;19.10;57.90;;;;;;5091868;28;20277;-46
2021/05/08 12:27:45;;;;;;;2.30;2.10;;;19.30;57.60;;;;;;5092076;28;20701;-44
2021/05/08 12:30:13;;;;;;;2.65;2.35;;;19.40;57.30;;;;;;5091991;28;20230;-46
2021/05/08 12:32:50;;;;;;;2.72;2.33;;;19.60;57.20;;;;;;5091910;28;20297;-47
2021/05/08 12:35:19;;;;;;;3.65;2.42;;;19.80;56.50;;;;;;5071648;28;20221;-45
2021/05/08 12:37:46;;;;;;;2.50;1.70;;;19.90;56.30;;;;;;5072008;28;20305;-49
2021/05/08 12:40:14;;;;;;;2.92;2.63;;;19.80;56.10;;;;;;5072221;28;20210;-49
2021/05/08 12:42:44;;;;;;;2.58;2.38;;;19.70;56.10;;;;;;5071721;28;20294;-47
2021/05/08 12:45:12;;;;;;;2.67;2.20;;;19.50;55.90;;;;;;5071191;28;20703;-48
2021/05/08 12:47:41;;;;;;;2.22;2.03;;;19.50;56.20;;;;;;5069591;28;20243;-46
2021/05/08 12:50:13;;;;;;;2.50;1.73;;;19.60;56.20;;;;;;5071042;28;20286;-47
2021/05/08 12:52:42;;;;;;;3.33;1.55;;;19.80;56.00;;;;;;5072120;28;20211;-50
2021/05/08 12:55:23;;;;;;;2.22;2.03;;;20.00;55.80;;;;;;5071478;28;20207;-50
2021/05/08 12:57:52;;;;;;;3.08;2.80;;;20.20;55.20;;;;;;5071433;28;20207;-50
2021/05/08 13:00:20;;;;;;;4.82;1.92;;;20.20;55.00;;;;;;5071168;28;20237;-46
2021/05/08 13:02:50;;;;;;;1.13;1.02;;;20.20;54.50;;;;;;5071253;28;20208;-50